Notice: Undefined index: station in /home3/dimtiris/public_html/webApp/metar/index.php on line 4

Metar

Weather conditions for all airports of the world. Just type the ICAO code of an airport.

LGAV 211720Z VRB02KT 9999 FEW025 SCT070 13/M01 Q1022 NOSIG

STATION LGAV
OBSERVED Sun Dec 21, 10:20 MST
NOW Sun Dec 21, 10:55 MST
AGE 35 min ago
WIND varies at 2 mph
VISIBILITY 16 miles
CONDITIONS
CLOUDS scattered clouds
TEMP 55°F (13°C)
DEWPT 30°F (-1°C)
HUMIDITY 38%
BAROMETER 1022 hPa (30.18 in Hg)

Get weather info from other station:

Some ICAO codes to try: